sensor_id;sensor_type;location;lat;lon;timestamp;P1;durP1;ratioP1;P2;durP2;ratioP2
76103;SDS011;64831;44.870;37.336;2023-07-22T00:01:19;15.63;;;8.88;;
76103;SDS011;64831;44.870;37.336;2023-07-22T00:03:45;18.30;;;9.23;;
76103;SDS011;64831;44.870;37.336;2023-07-22T00:06:11;14.93;;;8.68;;
76103;SDS011;64831;44.870;37.336;2023-07-22T00:08:37;13.32;;;8.20;;
76103;SDS011;64831;44.870;37.336;2023-07-22T00:11:05;14.32;;;9.20;;
76103;SDS011;64831;44.870;37.336;2023-07-22T00:13:31;14.20;;;8.27;;
76103;SDS011;64831;44.870;37.336;2023-07-22T00:15:59;13.85;;;8.40;;
76103;SDS011;64831;44.870;37.336;2023-07-22T00:18:25;18.70;;;8.95;;
76103;SDS011;64831;44.870;37.336;2023-07-22T00:20:52;15.27;;;8.25;;
76103;SDS011;64831;44.870;37.336;2023-07-22T00:23:21;15.90;;;8.60;;
76103;SDS011;64831;44.870;37.336;2023-07-22T00:25:47;12.85;;;7.82;;
76103;SDS011;64831;44.870;37.336;2023-07-22T00:28:13;18.77;;;7.97;;
76103;SDS011;64831;44.870;37.336;2023-07-22T00:30:40;16.13;;;9.10;;
76103;SDS011;64831;44.870;37.336;2023-07-22T00:33:06;12.70;;;8.23;;
76103;SDS011;64831;44.870;37.336;2023-07-22T00:35:33;13.52;;;8.00;;
76103;SDS011;64831;44.870;37.336;2023-07-22T00:38:02;12.30;;;7.38;;
76103;SDS011;64831;44.870;37.336;2023-07-22T00:40:29;14.07;;;7.32;;
76103;SDS011;64831;44.870;37.336;2023-07-22T00:42:58;14.57;;;8.03;;
76103;SDS011;64831;44.870;37.336;2023-07-22T00:45:27;13.00;;;7.78;;
76103;SDS011;64831;44.870;37.336;2023-07-22T00:47:53;10.43;;;7.22;;
76103;SDS011;64831;44.870;37.336;2023-07-22T00:50:19;14.63;;;8.07;;
76103;SDS011;64831;44.870;37.336;2023-07-22T00:52:45;9.23;;;6.95;;
76103;SDS011;64831;44.870;37.336;2023-07-22T00:55:11;12.45;;;7.90;;
76103;SDS011;64831;44.870;37.336;2023-07-22T00:57:37;13.45;;;7.75;;
76103;SDS011;64831;44.870;37.336;2023-07-22T01:00:04;10.95;;;7.50;;
76103;SDS011;64831;44.870;37.336;2023-07-22T01:02:31;12.00;;;7.82;;
76103;SDS011;64831;44.870;37.336;2023-07-22T01:04:57;11.07;;;7.32;;
76103;SDS011;64831;44.870;37.336;2023-07-22T01:07:23;15.90;;;9.35;;
76103;SDS011;64831;44.870;37.336;2023-07-22T01:09:50;16.02;;;8.77;;
76103;SDS011;64831;44.870;37.336;2023-07-22T01:12:23;12.13;;;7.97;;
76103;SDS011;64831;44.870;37.336;2023-07-22T01:14:50;16.95;;;8.55;;
76103;SDS011;64831;44.870;37.336;2023-07-22T01:17:16;19.90;;;8.98;;
76103;SDS011;64831;44.870;37.336;2023-07-22T01:19:45;14.85;;;8.13;;
76103;SDS011;64831;44.870;37.336;2023-07-22T01:22:12;11.85;;;7.68;;
76103;SDS011;64831;44.870;37.336;2023-07-22T01:24:38;11.35;;;8.05;;
76103;SDS011;64831;44.870;37.336;2023-07-22T01:27:08;12.70;;;8.20;;
76103;SDS011;64831;44.870;37.336;2023-07-22T01:29:35;15.65;;;8.27;;
76103;SDS011;64831;44.870;37.336;2023-07-22T01:32:01;18.15;;;8.07;;
76103;SDS011;64831;44.870;37.336;2023-07-22T01:34:28;11.20;;;7.47;;
76103;SDS011;64831;44.870;37.336;2023-07-22T01:36:55;14.32;;;8.20;;
76103;SDS011;64831;44.870;37.336;2023-07-22T01:39:21;11.48;;;7.68;;
76103;SDS011;64831;44.870;37.336;2023-07-22T01:41:47;14.18;;;7.50;;
76103;SDS011;64831;44.870;37.336;2023-07-22T01:44:14;10.88;;;7.22;;
76103;SDS011;64831;44.870;37.336;2023-07-22T01:46:40;13.23;;;7.55;;
76103;SDS011;64831;44.870;37.336;2023-07-22T01:49:07;8.52;;;6.72;;
76103;SDS011;64831;44.870;37.336;2023-07-22T01:51:35;12.53;;;7.57;;
76103;SDS011;64831;44.870;37.336;2023-07-22T01:54:05;13.80;;;7.72;;
76103;SDS011;64831;44.870;37.336;2023-07-22T01:56:32;13.75;;;7.53;;
76103;SDS011;64831;44.870;37.336;2023-07-22T01:58:58;12.82;;;7.72;;
76103;SDS011;64831;44.870;37.336;2023-07-22T02:01:24;15.70;;;7.75;;
76103;SDS011;64831;44.870;37.336;2023-07-22T02:03:50;12.05;;;7.85;;
76103;SDS011;64831;44.870;37.336;2023-07-22T02:06:16;12.40;;;8.15;;
76103;SDS011;64831;44.870;37.336;2023-07-22T02:08:42;14.18;;;8.30;;
76103;SDS011;64831;44.870;37.336;2023-07-22T02:11:08;9.73;;;7.18;;
76103;SDS011;64831;44.870;37.336;2023-07-22T02:13:34;12.23;;;7.93;;
76103;SDS011;64831;44.870;37.336;2023-07-22T02:16:01;10.65;;;7.90;;
76103;SDS011;64831;44.870;37.336;2023-07-22T02:18:27;12.35;;;7.70;;
76103;SDS011;64831;44.870;37.336;2023-07-22T02:20:54;12.73;;;8.20;;
76103;SDS011;64831;44.870;37.336;2023-07-22T02:23:21;12.80;;;8.65;;
76103;SDS011;64831;44.870;37.336;2023-07-22T02:25:48;15.93;;;8.07;;
76103;SDS011;64831;44.870;37.336;2023-07-22T02:28:15;14.15;;;8.07;;
76103;SDS011;64831;44.870;37.336;2023-07-22T02:30:41;10.57;;;8.18;;
76103;SDS011;64831;44.870;37.336;2023-07-22T02:33:07;12.90;;;8.20;;
76103;SDS011;64831;44.870;37.336;2023-07-22T02:35:34;11.05;;;7.25;;
76103;SDS011;64831;44.870;37.336;2023-07-22T02:38:00;12.75;;;7.97;;
76103;SDS011;64831;44.870;37.336;2023-07-22T02:40:27;18.95;;;8.52;;
76103;SDS011;64831;44.870;37.336;2023-07-22T02:42:53;13.82;;;8.55;;
76103;SDS011;64831;44.870;37.336;2023-07-22T02:45:19;13.20;;;8.13;;
76103;SDS011;64831;44.870;37.336;2023-07-22T02:47:45;17.20;;;8.65;;
76103;SDS011;64831;44.870;37.336;2023-07-22T02:50:11;15.80;;;7.90;;
76103;SDS011;64831;44.870;37.336;2023-07-22T02:52:37;11.95;;;7.72;;
76103;SDS011;64831;44.870;37.336;2023-07-22T02:55:04;15.38;;;8.40;;
76103;SDS011;64831;44.870;37.336;2023-07-22T02:57:30;16.13;;;8.02;;
76103;SDS011;64831;44.870;37.336;2023-07-22T02:59:56;11.30;;;8.18;;
76103;SDS011;64831;44.870;37.336;2023-07-22T03:02:22;15.95;;;8.70;;
76103;SDS011;64831;44.870;37.336;2023-07-22T03:04:48;14.82;;;9.35;;
76103;SDS011;64831;44.870;37.336;2023-07-22T03:07:14;25.58;;;8.85;;
76103;SDS011;64831;44.870;37.336;2023-07-22T03:09:40;17.95;;;9.35;;
76103;SDS011;64831;44.870;37.336;2023-07-22T03:12:06;16.75;;;8.80;;
76103;SDS011;64831;44.870;37.336;2023-07-22T03:14:32;11.10;;;7.93;;
76103;SDS011;64831;44.870;37.336;2023-07-22T03:17:02;14.50;;;8.93;;
76103;SDS011;64831;44.870;37.336;2023-07-22T03:19:29;12.80;;;9.40;;
76103;SDS011;64831;44.870;37.336;2023-07-22T03:21:55;13.45;;;7.75;;
76103;SDS011;64831;44.870;37.336;2023-07-22T03:24:21;16.38;;;9.20;;
76103;SDS011;64831;44.870;37.336;2023-07-22T03:26:47;20.13;;;9.70;;
76103;SDS011;64831;44.870;37.336;2023-07-22T03:29:12;24.85;;;12.30;;
76103;SDS011;64831;44.870;37.336;2023-07-22T03:31:39;17.33;;;9.82;;
76103;SDS011;64831;44.870;37.336;2023-07-22T03:34:05;15.45;;;9.30;;
76103;SDS011;64831;44.870;37.336;2023-07-22T03:36:31;16.88;;;9.25;;
76103;SDS011;64831;44.870;37.336;2023-07-22T03:39:00;12.68;;;8.40;;
76103;SDS011;64831;44.870;37.336;2023-07-22T03:41:26;12.80;;;8.75;;
76103;SDS011;64831;44.870;37.336;2023-07-22T03:43:52;10.60;;;8.05;;
76103;SDS011;64831;44.870;37.336;2023-07-22T03:46:18;15.07;;;8.35;;
76103;SDS011;64831;44.870;37.336;2023-07-22T03:48:44;14.32;;;7.65;;
76103;SDS011;64831;44.870;37.336;2023-07-22T03:51:10;13.60;;;7.07;;
76103;SDS011;64831;44.870;37.336;2023-07-22T03:53:36;14.63;;;8.15;;
76103;SDS011;64831;44.870;37.336;2023-07-22T03:56:02;8.52;;;6.07;;
76103;SDS011;64831;44.870;37.336;2023-07-22T03:58:28;9.32;;;6.10;;
76103;SDS011;64831;44.870;37.336;2023-07-22T04:00:53;9.88;;;6.60;;
76103;SDS011;64831;44.870;37.336;2023-07-22T04:03:19;11.25;;;6.78;;
76103;SDS011;64831;44.870;37.336;2023-07-22T04:05:52;9.77;;;5.88;;
76103;SDS011;64831;44.870;37.336;2023-07-22T04:08:19;10.32;;;6.00;;
76103;SDS011;64831;44.870;37.336;2023-07-22T04:10:52;10.88;;;5.97;;
76103;SDS011;64831;44.870;37.336;2023-07-22T04:13:18;10.77;;;6.07;;
76103;SDS011;64831;44.870;37.336;2023-07-22T04:15:44;9.02;;;6.05;;
76103;SDS011;64831;44.870;37.336;2023-07-22T04:18:10;8.05;;;5.40;;
76103;SDS011;64831;44.870;37.336;2023-07-22T04:20:36;10.32;;;4.68;;
76103;SDS011;64831;44.870;37.336;2023-07-22T04:23:02;7.38;;;6.10;;
76103;SDS011;64831;44.870;37.336;2023-07-22T04:25:28;9.10;;;5.43;;
76103;SDS011;64831;44.870;37.336;2023-07-22T04:27:54;12.55;;;5.55;;
76103;SDS011;64831;44.870;37.336;2023-07-22T04:30:21;7.95;;;5.45;;
76103;SDS011;64831;44.870;37.336;2023-07-22T04:32:47;10.45;;;5.63;;
76103;SDS011;64831;44.870;37.336;2023-07-22T04:35:15;7.85;;;5.68;;
76103;SDS011;64831;44.870;37.336;2023-07-22T04:37:44;9.55;;;5.65;;
76103;SDS011;64831;44.870;37.336;2023-07-22T04:40:13;9.23;;;6.40;;
76103;SDS011;64831;44.870;37.336;2023-07-22T04:42:42;6.50;;;4.82;;
76103;SDS011;64831;44.870;37.336;2023-07-22T04:45:09;7.28;;;5.60;;
76103;SDS011;64831;44.870;37.336;2023-07-22T04:47:36;10.07;;;5.50;;
76103;SDS011;64831;44.870;37.336;2023-07-22T04:50:04;7.55;;;5.25;;
76103;SDS011;64831;44.870;37.336;2023-07-22T04:52:34;7.82;;;5.15;;
76103;SDS011;64831;44.870;37.336;2023-07-22T04:55:01;9.55;;;5.85;;
76103;SDS011;64831;44.870;37.336;2023-07-22T04:57:43;12.18;;;6.47;;
76103;SDS011;64831;44.870;37.336;2023-07-22T05:00:13;9.20;;;6.18;;
76103;SDS011;64831;44.870;37.336;2023-07-22T05:02:42;11.05;;;6.85;;
76103;SDS011;64831;44.870;37.336;2023-07-22T05:05:14;8.38;;;5.43;;
76103;SDS011;64831;44.870;37.336;2023-07-22T05:07:41;7.97;;;4.93;;
76103;SDS011;64831;44.870;37.336;2023-07-22T05:10:07;8.13;;;5.38;;
76103;SDS011;64831;44.870;37.336;2023-07-22T05:12:44;11.93;;;5.35;;
76103;SDS011;64831;44.870;37.336;2023-07-22T05:15:11;12.02;;;6.18;;
76103;SDS011;64831;44.870;37.336;2023-07-22T05:17:38;8.70;;;5.80;;
76103;SDS011;64831;44.870;37.336;2023-07-22T05:20:05;9.85;;;5.68;;
76103;SDS011;64831;44.870;37.336;2023-07-22T05:22:34;11.38;;;5.80;;
76103;SDS011;64831;44.870;37.336;2023-07-22T05:25:00;7.40;;;5.30;;
76103;SDS011;64831;44.870;37.336;2023-07-22T05:27:26;12.73;;;6.13;;
76103;SDS011;64831;44.870;37.336;2023-07-22T05:29:52;7.72;;;5.57;;
76103;SDS011;64831;44.870;37.336;2023-07-22T05:32:18;8.00;;;5.30;;
76103;SDS011;64831;44.870;37.336;2023-07-22T05:34:44;12.85;;;5.50;;
76103;SDS011;64831;44.870;37.336;2023-07-22T05:37:10;12.32;;;5.78;;
76103;SDS011;64831;44.870;37.336;2023-07-22T05:39:36;7.90;;;4.55;;
76103;SDS011;64831;44.870;37.336;2023-07-22T05:42:02;9.23;;;5.25;;
76103;SDS011;64831;44.870;37.336;2023-07-22T05:44:28;8.00;;;5.18;;
76103;SDS011;64831;44.870;37.336;2023-07-22T05:46:53;7.72;;;5.07;;
76103;SDS011;64831;44.870;37.336;2023-07-22T05:49:20;8.20;;;4.97;;
76103;SDS011;64831;44.870;37.336;2023-07-22T05:51:46;8.27;;;5.80;;
76103;SDS011;64831;44.870;37.336;2023-07-22T05:54:12;10.90;;;6.60;;
76103;SDS011;64831;44.870;37.336;2023-07-22T05:56:39;9.32;;;4.97;;
76103;SDS011;64831;44.870;37.336;2023-07-22T05:59:06;5.55;;;4.28;;
76103;SDS011;64831;44.870;37.336;2023-07-22T06:01:32;7.95;;;4.00;;
76103;SDS011;64831;44.870;37.336;2023-07-22T06:03:58;10.75;;;4.22;;
76103;SDS011;64831;44.870;37.336;2023-07-22T06:06:24;19.42;;;10.52;;
76103;SDS011;64831;44.870;37.336;2023-07-22T06:08:50;6.82;;;4.40;;
76103;SDS011;64831;44.870;37.336;2023-07-22T06:11:16;8.48;;;4.03;;
76103;SDS011;64831;44.870;37.336;2023-07-22T06:13:42;6.57;;;3.92;;
76103;SDS011;64831;44.870;37.336;2023-07-22T06:16:08;5.50;;;3.53;;
76103;SDS011;64831;44.870;37.336;2023-07-22T06:18:34;8.18;;;4.03;;
76103;SDS011;64831;44.870;37.336;2023-07-22T06:21:00;8.13;;;4.45;;
76103;SDS011;64831;44.870;37.336;2023-07-22T06:23:26;8.57;;;4.68;;
76103;SDS011;64831;44.870;37.336;2023-07-22T06:25:52;7.80;;;3.45;;
76103;SDS011;64831;44.870;37.336;2023-07-22T06:28:18;8.18;;;4.45;;
76103;SDS011;64831;44.870;37.336;2023-07-22T06:30:44;6.10;;;3.97;;
76103;SDS011;64831;44.870;37.336;2023-07-22T06:33:10;6.90;;;3.63;;
76103;SDS011;64831;44.870;37.336;2023-07-22T06:35:36;7.78;;;3.70;;
76103;SDS011;64831;44.870;37.336;2023-07-22T06:38:01;5.93;;;3.67;;
76103;SDS011;64831;44.870;37.336;2023-07-22T06:40:28;7.50;;;3.70;;
76103;SDS011;64831;44.870;37.336;2023-07-22T06:43:02;5.10;;;3.65;;
76103;SDS011;64831;44.870;37.336;2023-07-22T06:45:48;13.75;;;9.75;;
76103;SDS011;64831;44.870;37.336;2023-07-22T06:48:14;9.80;;;4.35;;
76103;SDS011;64831;44.870;37.336;2023-07-22T06:50:46;5.35;;;3.25;;
76103;SDS011;64831;44.870;37.336;2023-07-22T06:53:13;5.65;;;3.80;;
76103;SDS011;64831;44.870;37.336;2023-07-22T06:55:40;5.75;;;3.95;;
76103;SDS011;64831;44.870;37.336;2023-07-22T06:58:13;8.73;;;4.30;;
76103;SDS011;64831;44.870;37.336;2023-07-22T07:00:39;6.50;;;4.00;;
76103;SDS011;64831;44.870;37.336;2023-07-22T07:03:05;6.13;;;4.30;;
76103;SDS011;64831;44.870;37.336;2023-07-22T07:05:31;6.85;;;4.43;;
76103;SDS011;64831;44.870;37.336;2023-07-22T07:07:57;9.35;;;4.95;;
76103;SDS011;64831;44.870;37.336;2023-07-22T07:10:24;8.60;;;4.93;;
76103;SDS011;64831;44.870;37.336;2023-07-22T07:12:51;5.97;;;3.22;;
76103;SDS011;64831;44.870;37.336;2023-07-22T07:15:17;7.88;;;5.10;;
76103;SDS011;64831;44.870;37.336;2023-07-22T07:17:44;6.80;;;4.90;;
76103;SDS011;64831;44.870;37.336;2023-07-22T07:20:09;6.32;;;4.95;;
76103;SDS011;64831;44.870;37.336;2023-07-22T07:22:36;8.27;;;4.80;;
76103;SDS011;64831;44.870;37.336;2023-07-22T07:25:02;9.50;;;5.28;;
76103;SDS011;64831;44.870;37.336;2023-07-22T07:27:28;6.90;;;5.05;;
76103;SDS011;64831;44.870;37.336;2023-07-22T07:29:54;7.00;;;5.03;;
76103;SDS011;64831;44.870;37.336;2023-07-22T07:32:20;4.13;;;3.47;;
76103;SDS011;64831;44.870;37.336;2023-07-22T07:34:46;8.68;;;5.65;;
76103;SDS011;64831;44.870;37.336;2023-07-22T07:37:12;6.68;;;5.00;;
76103;SDS011;64831;44.870;37.336;2023-07-22T07:39:38;7.47;;;4.40;;
76103;SDS011;64831;44.870;37.336;2023-07-22T07:42:04;7.80;;;4.65;;
76103;SDS011;64831;44.870;37.336;2023-07-22T07:44:30;9.38;;;4.68;;
76103;SDS011;64831;44.870;37.336;2023-07-22T07:46:56;5.90;;;4.57;;
76103;SDS011;64831;44.870;37.336;2023-07-22T07:49:22;7.55;;;4.72;;
76103;SDS011;64831;44.870;37.336;2023-07-22T07:51:48;4.20;;;2.78;;
76103;SDS011;64831;44.870;37.336;2023-07-22T07:54:14;5.70;;;3.72;;
76103;SDS011;64831;44.870;37.336;2023-07-22T07:56:40;3.30;;;2.22;;
76103;SDS011;64831;44.870;37.336;2023-07-22T07:59:06;5.20;;;3.42;;
76103;SDS011;64831;44.870;37.336;2023-07-22T08:01:34;4.25;;;3.70;;
76103;SDS011;64831;44.870;37.336;2023-07-22T08:04:02;7.57;;;4.47;;
76103;SDS011;64831;44.870;37.336;2023-07-22T08:06:28;4.32;;;2.97;;
76103;SDS011;64831;44.870;37.336;2023-07-22T08:08:54;6.43;;;3.33;;
76103;SDS011;64831;44.870;37.336;2023-07-22T08:11:20;4.18;;;2.33;;
76103;SDS011;64831;44.870;37.336;2023-07-22T08:13:46;2.47;;;2.05;;
76103;SDS011;64831;44.870;37.336;2023-07-22T08:16:12;3.50;;;3.05;;
76103;SDS011;64831;44.870;37.336;2023-07-22T08:18:39;3.85;;;2.85;;
76103;SDS011;64831;44.870;37.336;2023-07-22T08:21:05;5.32;;;2.55;;
76103;SDS011;64831;44.870;37.336;2023-07-22T08:23:32;5.22;;;3.45;;
76103;SDS011;64831;44.870;37.336;2023-07-22T08:25:58;5.38;;;3.30;;
76103;SDS011;64831;44.870;37.336;2023-07-22T08:28:24;8.05;;;3.47;;
76103;SDS011;64831;44.870;37.336;2023-07-22T08:30:53;4.97;;;2.90;;
76103;SDS011;64831;44.870;37.336;2023-07-22T08:33:19;3.30;;;3.00;;
76103;SDS011;64831;44.870;37.336;2023-07-22T08:35:45;3.97;;;3.00;;
76103;SDS011;64831;44.870;37.336;2023-07-22T08:38:13;5.78;;;3.13;;
76103;SDS011;64831;44.870;37.336;2023-07-22T08:40:40;5.28;;;3.63;;
76103;SDS011;64831;44.870;37.336;2023-07-22T08:43:07;7.47;;;3.90;;
76103;SDS011;64831;44.870;37.336;2023-07-22T08:45:34;10.57;;;3.75;;
76103;SDS011;64831;44.870;37.336;2023-07-22T08:48:02;5.07;;;3.47;;
76103;SDS011;64831;44.870;37.336;2023-07-22T08:53:10;5.22;;;3.40;;
76103;SDS011;64831;44.870;37.336;2023-07-22T08:55:37;5.05;;;2.85;;
76103;SDS011;64831;44.870;37.336;2023-07-22T08:58:09;3.20;;;2.90;;
76103;SDS011;64831;44.870;37.336;2023-07-22T09:00:36;6.82;;;3.20;;
76103;SDS011;64831;44.870;37.336;2023-07-22T09:03:03;4.88;;;3.28;;
76103;SDS011;64831;44.870;37.336;2023-07-22T09:05:31;4.05;;;2.25;;
76103;SDS011;64831;44.870;37.336;2023-07-22T09:07:59;4.35;;;3.45;;
76103;SDS011;64831;44.870;37.336;2023-07-22T09:10:27;3.72;;;3.22;;
76103;SDS011;64831;44.870;37.336;2023-07-22T09:12:53;2.78;;;2.20;;
76103;SDS011;64831;44.870;37.336;2023-07-22T09:15:20;5.53;;;3.05;;
76103;SDS011;64831;44.870;37.336;2023-07-22T09:17:46;8.43;;;3.83;;
76103;SDS011;64831;44.870;37.336;2023-07-22T09:20:13;8.30;;;4.18;;
76103;SDS011;64831;44.870;37.336;2023-07-22T09:22:43;5.97;;;3.72;;
76103;SDS011;64831;44.870;37.336;2023-07-22T09:30:20;10.68;;;5.25;;
76103;SDS011;64831;44.870;37.336;2023-07-22T09:32:47;5.78;;;4.15;;
76103;SDS011;64831;44.870;37.336;2023-07-22T09:35:17;6.35;;;5.22;;
76103;SDS011;64831;44.870;37.336;2023-07-22T09:38:01;9.68;;;5.63;;
76103;SDS011;64831;44.870;37.336;2023-07-22T09:40:27;6.63;;;4.90;;
76103;SDS011;64831;44.870;37.336;2023-07-22T09:42:54;5.00;;;3.00;;
76103;SDS011;64831;44.870;37.336;2023-07-22T09:45:22;6.57;;;4.55;;
76103;SDS011;64831;44.870;37.336;2023-07-22T09:47:50;6.30;;;4.70;;
76103;SDS011;64831;44.870;37.336;2023-07-22T09:50:17;8.02;;;5.50;;
76103;SDS011;64831;44.870;37.336;2023-07-22T09:52:45;9.45;;;5.07;;
76103;SDS011;64831;44.870;37.336;2023-07-22T09:57:43;6.90;;;5.15;;
76103;SDS011;64831;44.870;37.336;2023-07-22T10:00:15;11.52;;;5.45;;
76103;SDS011;64831;44.870;37.336;2023-07-22T10:02:43;9.32;;;5.68;;
76103;SDS011;64831;44.870;37.336;2023-07-22T10:05:14;10.20;;;5.70;;
76103;SDS011;64831;44.870;37.336;2023-07-22T10:07:49;11.98;;;5.93;;
76103;SDS011;64831;44.870;37.336;2023-07-22T10:10:21;8.30;;;4.63;;
76103;SDS011;64831;44.870;37.336;2023-07-22T10:13:07;8.73;;;6.70;;
76103;SDS011;64831;44.870;37.336;2023-07-22T10:15:43;10.55;;;5.68;;
76103;SDS011;64831;44.870;37.336;2023-07-22T10:18:10;8.43;;;4.82;;
76103;SDS011;64831;44.870;37.336;2023-07-22T10:20:37;7.18;;;5.38;;
76103;SDS011;64831;44.870;37.336;2023-07-22T10:23:04;8.25;;;4.32;;
76103;SDS011;64831;44.870;37.336;2023-07-22T10:25:32;13.10;;;5.70;;
76103;SDS011;64831;44.870;37.336;2023-07-22T10:27:58;9.88;;;5.10;;
76103;SDS011;64831;44.870;37.336;2023-07-22T10:30:24;9.48;;;4.97;;
76103;SDS011;64831;44.870;37.336;2023-07-22T10:32:51;5.47;;;3.80;;
76103;SDS011;64831;44.870;37.336;2023-07-22T10:37:56;6.57;;;5.00;;
76103;SDS011;64831;44.870;37.336;2023-07-22T10:43:12;8.65;;;5.63;;
76103;SDS011;64831;44.870;37.336;2023-07-22T10:45:41;7.07;;;5.32;;
76103;SDS011;64831;44.870;37.336;2023-07-22T10:50:46;5.35;;;4.15;;
76103;SDS011;64831;44.870;37.336;2023-07-22T10:53:13;8.68;;;5.07;;
76103;SDS011;64831;44.870;37.336;2023-07-22T11:06:34;8.50;;;4.13;;
76103;SDS011;64831;44.870;37.336;2023-07-22T11:09:00;11.43;;;5.30;;
76103;SDS011;64831;44.870;37.336;2023-07-22T11:11:36;5.65;;;3.58;;
76103;SDS011;64831;44.870;37.336;2023-07-22T11:17:30;11.45;;;5.82;;
76103;SDS011;64831;44.870;37.336;2023-07-22T11:19:58;6.95;;;4.82;;
76103;SDS011;64831;44.870;37.336;2023-07-22T11:22:25;9.57;;;5.10;;
76103;SDS011;64831;44.870;37.336;2023-07-22T11:24:54;9.75;;;5.30;;
76103;SDS011;64831;44.870;37.336;2023-07-22T11:27:23;6.72;;;5.78;;
76103;SDS011;64831;44.870;37.336;2023-07-22T11:29:49;6.65;;;5.13;;
76103;SDS011;64831;44.870;37.336;2023-07-22T11:32:16;7.95;;;3.65;;
76103;SDS011;64831;44.870;37.336;2023-07-22T11:34:43;9.30;;;4.93;;
76103;SDS011;64831;44.870;37.336;2023-07-22T11:37:12;8.25;;;4.68;;
76103;SDS011;64831;44.870;37.336;2023-07-22T11:39:40;9.30;;;5.03;;
76103;SDS011;64831;44.870;37.336;2023-07-22T11:50:34;5.25;;;3.33;;
76103;SDS011;64831;44.870;37.336;2023-07-22T11:55:51;8.77;;;4.90;;
76103;SDS011;64831;44.870;37.336;2023-07-22T11:58:25;6.63;;;4.50;;
76103;SDS011;64831;44.870;37.336;2023-07-22T12:01:05;5.32;;;4.55;;
76103;SDS011;64831;44.870;37.336;2023-07-22T12:03:35;10.13;;;4.80;;
76103;SDS011;64831;44.870;37.336;2023-07-22T12:06:02;5.82;;;4.13;;
76103;SDS011;64831;44.870;37.336;2023-07-22T12:08:28;6.32;;;4.80;;
76103;SDS011;64831;44.870;37.336;2023-07-22T12:10:57;2.90;;;2.65;;
76103;SDS011;64831;44.870;37.336;2023-07-22T12:13:24;7.40;;;4.13;;
76103;SDS011;64831;44.870;37.336;2023-07-22T12:16:05;8.95;;;3.85;;
76103;SDS011;64831;44.870;37.336;2023-07-22T12:18:41;8.45;;;3.70;;
76103;SDS011;64831;44.870;37.336;2023-07-22T12:21:08;4.75;;;3.17;;
76103;SDS011;64831;44.870;37.336;2023-07-22T12:23:35;7.20;;;3.58;;
76103;SDS011;64831;44.870;37.336;2023-07-22T12:26:03;7.67;;;3.60;;
76103;SDS011;64831;44.870;37.336;2023-07-22T12:28:30;6.10;;;4.15;;
76103;SDS011;64831;44.870;37.336;2023-07-22T12:30:56;8.77;;;3.78;;
76103;SDS011;64831;44.870;37.336;2023-07-22T12:33:23;5.78;;;3.97;;
76103;SDS011;64831;44.870;37.336;2023-07-22T12:35:50;7.28;;;3.65;;
76103;SDS011;64831;44.870;37.336;2023-07-22T12:38:28;3.85;;;3.10;;
76103;SDS011;64831;44.870;37.336;2023-07-22T12:40:57;7.70;;;4.20;;
76103;SDS011;64831;44.870;37.336;2023-07-22T12:43:23;7.32;;;3.83;;
76103;SDS011;64831;44.870;37.336;2023-07-22T12:45:49;4.47;;;2.83;;
76103;SDS011;64831;44.870;37.336;2023-07-22T12:48:16;6.32;;;3.90;;
76103;SDS011;64831;44.870;37.336;2023-07-22T12:50:43;4.88;;;3.45;;
76103;SDS011;64831;44.870;37.336;2023-07-22T12:53:09;4.82;;;3.42;;
76103;SDS011;64831;44.870;37.336;2023-07-22T12:55:35;6.85;;;3.90;;
76103;SDS011;64831;44.870;37.336;2023-07-22T12:58:01;5.22;;;3.13;;
76103;SDS011;64831;44.870;37.336;2023-07-22T13:00:50;4.93;;;3.78;;
76103;SDS011;64831;44.870;37.336;2023-07-22T13:03:16;5.85;;;3.85;;
76103;SDS011;64831;44.870;37.336;2023-07-22T13:05:49;7.75;;;3.97;;
76103;SDS011;64831;44.870;37.336;2023-07-22T13:08:19;2.40;;;2.08;;
76103;SDS011;64831;44.870;37.336;2023-07-22T13:10:48;2.70;;;2.22;;
76103;SDS011;64831;44.870;37.336;2023-07-22T13:13:14;5.50;;;2.60;;
76103;SDS011;64831;44.870;37.336;2023-07-22T13:15:40;3.08;;;2.63;;
76103;SDS011;64831;44.870;37.336;2023-07-22T13:18:06;5.05;;;3.15;;
76103;SDS011;64831;44.870;37.336;2023-07-22T13:20:32;4.82;;;3.80;;
76103;SDS011;64831;44.870;37.336;2023-07-22T13:22:58;5.80;;;2.50;;
76103;SDS011;64831;44.870;37.336;2023-07-22T13:25:24;5.18;;;3.38;;
76103;SDS011;64831;44.870;37.336;2023-07-22T13:27:50;9.45;;;4.20;;
76103;SDS011;64831;44.870;37.336;2023-07-22T13:30:16;11.85;;;3.60;;
76103;SDS011;64831;44.870;37.336;2023-07-22T13:32:42;5.20;;;3.47;;
76103;SDS011;64831;44.870;37.336;2023-07-22T13:35:08;5.70;;;3.05;;
76103;SDS011;64831;44.870;37.336;2023-07-22T13:37:35;7.05;;;3.42;;
76103;SDS011;64831;44.870;37.336;2023-07-22T13:40:01;5.63;;;3.88;;
76103;SDS011;64831;44.870;37.336;2023-07-22T13:42:30;4.75;;;3.28;;
76103;SDS011;64831;44.870;37.336;2023-07-22T13:44:56;8.15;;;2.83;;
76103;SDS011;64831;44.870;37.336;2023-07-22T13:47:22;5.07;;;3.30;;
76103;SDS011;64831;44.870;37.336;2023-07-22T13:49:48;3.40;;;2.75;;
76103;SDS011;64831;44.870;37.336;2023-07-22T13:52:13;4.35;;;3.28;;
76103;SDS011;64831;44.870;37.336;2023-07-22T13:54:39;4.35;;;3.17;;
76103;SDS011;64831;44.870;37.336;2023-07-22T13:57:05;4.72;;;3.10;;
76103;SDS011;64831;44.870;37.336;2023-07-22T13:59:32;3.97;;;3.22;;
76103;SDS011;64831;44.870;37.336;2023-07-22T14:01:58;5.90;;;3.50;;
76103;SDS011;64831;44.870;37.336;2023-07-22T14:04:23;4.80;;;3.45;;
76103;SDS011;64831;44.870;37.336;2023-07-22T14:06:49;7.47;;;2.75;;
76103;SDS011;64831;44.870;37.336;2023-07-22T14:09:15;3.13;;;2.60;;
76103;SDS011;64831;44.870;37.336;2023-07-22T14:11:41;5.90;;;2.58;;
76103;SDS011;64831;44.870;37.336;2023-07-22T14:14:07;3.33;;;3.03;;
76103;SDS011;64831;44.870;37.336;2023-07-22T14:16:33;3.13;;;2.28;;
76103;SDS011;64831;44.870;37.336;2023-07-22T14:18:59;7.70;;;3.30;;
76103;SDS011;64831;44.870;37.336;2023-07-22T14:21:25;3.20;;;2.88;;
76103;SDS011;64831;44.870;37.336;2023-07-22T14:23:51;4.43;;;2.83;;
76103;SDS011;64831;44.870;37.336;2023-07-22T14:26:17;4.07;;;3.50;;
76103;SDS011;64831;44.870;37.336;2023-07-22T14:28:43;4.20;;;3.15;;
76103;SDS011;64831;44.870;37.336;2023-07-22T14:31:09;5.38;;;3.55;;
76103;SDS011;64831;44.870;37.336;2023-07-22T14:33:35;12.30;;;7.13;;
76103;SDS011;64831;44.870;37.336;2023-07-22T14:36:01;4.65;;;3.40;;
76103;SDS011;64831;44.870;37.336;2023-07-22T14:38:28;4.03;;;3.25;;
76103;SDS011;64831;44.870;37.336;2023-07-22T14:40:54;3.05;;;2.15;;
76103;SDS011;64831;44.870;37.336;2023-07-22T14:43:20;6.93;;;5.25;;
76103;SDS011;64831;44.870;37.336;2023-07-22T14:45:46;8.80;;;3.40;;
76103;SDS011;64831;44.870;37.336;2023-07-22T14:48:12;4.68;;;2.53;;
76103;SDS011;64831;44.870;37.336;2023-07-22T14:50:38;5.82;;;3.20;;
76103;SDS011;64831;44.870;37.336;2023-07-22T14:53:04;4.47;;;2.42;;
76103;SDS011;64831;44.870;37.336;2023-07-22T14:55:30;7.72;;;3.53;;
76103;SDS011;64831;44.870;37.336;2023-07-22T14:57:56;5.68;;;3.50;;
76103;SDS011;64831;44.870;37.336;2023-07-22T15:00:22;4.68;;;3.22;;
76103;SDS011;64831;44.870;37.336;2023-07-22T15:02:48;5.85;;;3.30;;
76103;SDS011;64831;44.870;37.336;2023-07-22T15:05:14;5.53;;;3.67;;
76103;SDS011;64831;44.870;37.336;2023-07-22T15:07:40;9.30;;;3.05;;
76103;SDS011;64831;44.870;37.336;2023-07-22T15:10:06;3.50;;;2.92;;
76103;SDS011;64831;44.870;37.336;2023-07-22T15:12:32;5.63;;;3.17;;
76103;SDS011;64831;44.870;37.336;2023-07-22T15:14:58;3.45;;;2.30;;